sensor_id;sensor_type;location;lat;lon;timestamp;P1;durP1;ratioP1;P2;durP2;ratioP2
79728;SDS011;69218;52.132;5.418;2023-07-30T00:00:44;5.00;;;0.95;;
79728;SDS011;69218;52.132;5.418;2023-07-30T00:03:10;6.53;;;0.93;;
79728;SDS011;69218;52.132;5.418;2023-07-30T00:05:37;6.25;;;0.68;;
79728;SDS011;69218;52.132;5.418;2023-07-30T00:08:04;4.60;;;1.10;;
79728;SDS011;69218;52.132;5.418;2023-07-30T00:10:30;3.15;;;1.02;;
79728;SDS011;69218;52.132;5.418;2023-07-30T00:12:56;3.90;;;1.38;;
79728;SDS011;69218;52.132;5.418;2023-07-30T00:15:23;3.92;;;1.02;;
79728;SDS011;69218;52.132;5.418;2023-07-30T00:17:49;5.90;;;1.15;;
79728;SDS011;69218;52.132;5.418;2023-07-30T00:20:16;5.03;;;0.90;;
79728;SDS011;69218;52.132;5.418;2023-07-30T00:22:42;4.88;;;1.02;;
79728;SDS011;69218;52.132;5.418;2023-07-30T00:25:09;4.75;;;0.90;;
79728;SDS011;69218;52.132;5.418;2023-07-30T00:27:36;5.18;;;1.13;;
79728;SDS011;69218;52.132;5.418;2023-07-30T00:30:02;4.07;;;0.90;;
79728;SDS011;69218;52.132;5.418;2023-07-30T00:32:29;4.70;;;1.10;;
79728;SDS011;69218;52.132;5.418;2023-07-30T00:34:55;3.13;;;1.02;;
79728;SDS011;69218;52.132;5.418;2023-07-30T00:37:22;3.50;;;0.90;;
79728;SDS011;69218;52.132;5.418;2023-07-30T00:39:48;6.10;;;1.45;;
79728;SDS011;69218;52.132;5.418;2023-07-30T00:42:15;3.28;;;0.95;;
79728;SDS011;69218;52.132;5.418;2023-07-30T00:44:41;6.45;;;1.08;;
79728;SDS011;69218;52.132;5.418;2023-07-30T00:47:08;2.90;;;1.17;;
79728;SDS011;69218;52.132;5.418;2023-07-30T00:49:35;4.82;;;1.10;;
79728;SDS011;69218;52.132;5.418;2023-07-30T00:52:01;4.38;;;1.10;;
79728;SDS011;69218;52.132;5.418;2023-07-30T00:54:30;5.35;;;1.00;;
79728;SDS011;69218;52.132;5.418;2023-07-30T00:56:56;4.85;;;1.17;;
79728;SDS011;69218;52.132;5.418;2023-07-30T00:59:23;5.43;;;0.98;;
79728;SDS011;69218;52.132;5.418;2023-07-30T01:01:50;5.93;;;1.25;;
79728;SDS011;69218;52.132;5.418;2023-07-30T01:04:17;3.38;;;1.05;;
79728;SDS011;69218;52.132;5.418;2023-07-30T01:06:44;4.00;;;1.15;;
79728;SDS011;69218;52.132;5.418;2023-07-30T01:09:12;4.45;;;0.82;;
79728;SDS011;69218;52.132;5.418;2023-07-30T01:11:38;2.95;;;0.85;;
79728;SDS011;69218;52.132;5.418;2023-07-30T01:14:06;5.70;;;1.10;;
79728;SDS011;69218;52.132;5.418;2023-07-30T01:16:35;5.95;;;1.42;;
79728;SDS011;69218;52.132;5.418;2023-07-30T01:19:02;5.65;;;1.25;;
79728;SDS011;69218;52.132;5.418;2023-07-30T01:21:31;8.20;;;1.10;;
79728;SDS011;69218;52.132;5.418;2023-07-30T01:23:59;4.13;;;1.10;;
79728;SDS011;69218;52.132;5.418;2023-07-30T01:26:27;4.82;;;1.23;;
79728;SDS011;69218;52.132;5.418;2023-07-30T01:29:00;4.10;;;1.15;;
79728;SDS011;69218;52.132;5.418;2023-07-30T01:31:30;7.10;;;1.40;;
79728;SDS011;69218;52.132;5.418;2023-07-30T01:33:58;4.78;;;1.23;;
79728;SDS011;69218;52.132;5.418;2023-07-30T01:36:28;5.70;;;0.93;;
79728;SDS011;69218;52.132;5.418;2023-07-30T01:38:55;3.60;;;0.95;;
79728;SDS011;69218;52.132;5.418;2023-07-30T01:41:23;6.63;;;1.58;;
79728;SDS011;69218;52.132;5.418;2023-07-30T01:43:50;4.35;;;1.20;;
79728;SDS011;69218;52.132;5.418;2023-07-30T01:46:17;2.75;;;1.27;;
79728;SDS011;69218;52.132;5.418;2023-07-30T01:48:43;3.55;;;0.98;;
79728;SDS011;69218;52.132;5.418;2023-07-30T01:51:11;7.20;;;1.70;;
79728;SDS011;69218;52.132;5.418;2023-07-30T01:53:41;4.32;;;1.02;;
79728;SDS011;69218;52.132;5.418;2023-07-30T01:56:07;6.72;;;1.23;;
79728;SDS011;69218;52.132;5.418;2023-07-30T01:58:34;3.80;;;1.25;;
79728;SDS011;69218;52.132;5.418;2023-07-30T02:01:00;3.50;;;1.13;;
79728;SDS011;69218;52.132;5.418;2023-07-30T02:03:27;6.40;;;1.48;;
79728;SDS011;69218;52.132;5.418;2023-07-30T02:05:53;5.07;;;1.23;;
79728;SDS011;69218;52.132;5.418;2023-07-30T02:08:20;6.57;;;1.00;;
79728;SDS011;69218;52.132;5.418;2023-07-30T02:10:54;7.90;;;1.58;;
79728;SDS011;69218;52.132;5.418;2023-07-30T02:13:21;2.63;;;1.02;;
79728;SDS011;69218;52.132;5.418;2023-07-30T02:15:48;5.57;;;1.52;;
79728;SDS011;69218;52.132;5.418;2023-07-30T02:18:14;6.13;;;1.40;;
79728;SDS011;69218;52.132;5.418;2023-07-30T02:20:41;7.60;;;1.75;;
79728;SDS011;69218;52.132;5.418;2023-07-30T02:23:08;9.18;;;1.55;;
79728;SDS011;69218;52.132;5.418;2023-07-30T02:25:34;6.97;;;1.50;;
79728;SDS011;69218;52.132;5.418;2023-07-30T02:28:01;10.38;;;1.45;;
79728;SDS011;69218;52.132;5.418;2023-07-30T02:30:28;7.63;;;1.40;;
79728;SDS011;69218;52.132;5.418;2023-07-30T02:32:54;7.90;;;1.70;;
79728;SDS011;69218;52.132;5.418;2023-07-30T02:35:21;6.13;;;1.17;;
79728;SDS011;69218;52.132;5.418;2023-07-30T02:37:47;7.65;;;1.38;;
79728;SDS011;69218;52.132;5.418;2023-07-30T02:40:15;6.53;;;1.65;;
79728;SDS011;69218;52.132;5.418;2023-07-30T02:42:41;4.93;;;1.60;;
79728;SDS011;69218;52.132;5.418;2023-07-30T02:45:08;4.78;;;1.23;;
79728;SDS011;69218;52.132;5.418;2023-07-30T02:47:34;7.25;;;1.90;;
79728;SDS011;69218;52.132;5.418;2023-07-30T02:50:04;7.53;;;1.30;;
79728;SDS011;69218;52.132;5.418;2023-07-30T02:52:32;5.32;;;1.65;;
79728;SDS011;69218;52.132;5.418;2023-07-30T02:54:58;7.68;;;1.15;;
79728;SDS011;69218;52.132;5.418;2023-07-30T02:57:25;6.25;;;1.60;;
79728;SDS011;69218;52.132;5.418;2023-07-30T02:59:51;9.35;;;1.67;;
79728;SDS011;69218;52.132;5.418;2023-07-30T03:02:18;6.72;;;1.88;;
79728;SDS011;69218;52.132;5.418;2023-07-30T03:04:44;6.57;;;1.48;;
79728;SDS011;69218;52.132;5.418;2023-07-30T03:07:11;8.48;;;1.63;;
79728;SDS011;69218;52.132;5.418;2023-07-30T03:09:38;7.15;;;1.48;;
79728;SDS011;69218;52.132;5.418;2023-07-30T03:12:04;7.65;;;1.98;;
79728;SDS011;69218;52.132;5.418;2023-07-30T03:14:31;5.70;;;1.52;;
79728;SDS011;69218;52.132;5.418;2023-07-30T03:16:58;6.25;;;1.42;;
79728;SDS011;69218;52.132;5.418;2023-07-30T03:19:24;9.77;;;1.98;;
79728;SDS011;69218;52.132;5.418;2023-07-30T03:21:50;8.13;;;1.75;;
79728;SDS011;69218;52.132;5.418;2023-07-30T03:24:17;9.88;;;2.80;;
79728;SDS011;69218;52.132;5.418;2023-07-30T03:26:44;10.48;;;2.33;;
79728;SDS011;69218;52.132;5.418;2023-07-30T03:29:10;11.07;;;2.00;;
79728;SDS011;69218;52.132;5.418;2023-07-30T03:31:36;6.85;;;1.75;;
79728;SDS011;69218;52.132;5.418;2023-07-30T03:34:03;6.57;;;1.65;;
79728;SDS011;69218;52.132;5.418;2023-07-30T03:36:30;6.68;;;1.58;;
79728;SDS011;69218;52.132;5.418;2023-07-30T03:38:56;6.43;;;1.58;;
79728;SDS011;69218;52.132;5.418;2023-07-30T03:41:23;12.90;;;2.03;;
79728;SDS011;69218;52.132;5.418;2023-07-30T03:43:50;9.40;;;2.03;;
79728;SDS011;69218;52.132;5.418;2023-07-30T03:46:16;9.40;;;2.20;;
79728;SDS011;69218;52.132;5.418;2023-07-30T03:48:43;7.50;;;1.90;;
79728;SDS011;69218;52.132;5.418;2023-07-30T03:51:09;9.48;;;2.17;;
79728;SDS011;69218;52.132;5.418;2023-07-30T03:53:36;9.43;;;1.92;;
79728;SDS011;69218;52.132;5.418;2023-07-30T03:56:02;8.23;;;1.92;;
79728;SDS011;69218;52.132;5.418;2023-07-30T03:58:29;7.53;;;2.03;;
79728;SDS011;69218;52.132;5.418;2023-07-30T04:00:57;8.82;;;2.20;;
79728;SDS011;69218;52.132;5.418;2023-07-30T04:03:23;8.23;;;2.10;;
79728;SDS011;69218;52.132;5.418;2023-07-30T04:05:50;8.18;;;1.95;;
79728;SDS011;69218;52.132;5.418;2023-07-30T04:08:16;8.60;;;2.20;;
79728;SDS011;69218;52.132;5.418;2023-07-30T04:10:43;11.02;;;2.20;;
79728;SDS011;69218;52.132;5.418;2023-07-30T04:13:10;7.22;;;2.60;;
79728;SDS011;69218;52.132;5.418;2023-07-30T04:15:36;11.52;;;2.38;;
79728;SDS011;69218;52.132;5.418;2023-07-30T04:18:03;9.63;;;2.30;;
79728;SDS011;69218;52.132;5.418;2023-07-30T04:20:29;14.05;;;2.38;;
79728;SDS011;69218;52.132;5.418;2023-07-30T04:22:56;15.50;;;3.00;;
79728;SDS011;69218;52.132;5.418;2023-07-30T04:25:23;8.68;;;2.22;;
79728;SDS011;69218;52.132;5.418;2023-07-30T04:27:49;8.45;;;2.30;;
79728;SDS011;69218;52.132;5.418;2023-07-30T04:30:16;10.95;;;2.45;;
79728;SDS011;69218;52.132;5.418;2023-07-30T04:32:42;11.77;;;2.10;;
79728;SDS011;69218;52.132;5.418;2023-07-30T04:35:09;8.82;;;2.67;;
79728;SDS011;69218;52.132;5.418;2023-07-30T04:37:35;14.95;;;2.80;;
79728;SDS011;69218;52.132;5.418;2023-07-30T04:40:02;10.15;;;2.47;;
79728;SDS011;69218;52.132;5.418;2023-07-30T04:42:29;12.48;;;2.75;;
79728;SDS011;69218;52.132;5.418;2023-07-30T04:44:56;12.68;;;2.63;;
79728;SDS011;69218;52.132;5.418;2023-07-30T04:47:22;12.57;;;2.55;;
79728;SDS011;69218;52.132;5.418;2023-07-30T04:49:49;12.18;;;3.13;;
79728;SDS011;69218;52.132;5.418;2023-07-30T04:52:15;11.20;;;3.05;;
79728;SDS011;69218;52.132;5.418;2023-07-30T04:54:42;13.13;;;2.80;;
79728;SDS011;69218;52.132;5.418;2023-07-30T04:57:08;14.07;;;2.85;;
79728;SDS011;69218;52.132;5.418;2023-07-30T04:59:35;13.05;;;3.22;;
79728;SDS011;69218;52.132;5.418;2023-07-30T05:02:01;11.10;;;3.22;;
79728;SDS011;69218;52.132;5.418;2023-07-30T05:04:28;15.90;;;3.50;;
79728;SDS011;69218;52.132;5.418;2023-07-30T05:06:54;13.98;;;3.40;;
79728;SDS011;69218;52.132;5.418;2023-07-30T05:09:21;12.63;;;2.95;;
79728;SDS011;69218;52.132;5.418;2023-07-30T05:11:47;16.10;;;3.67;;
79728;SDS011;69218;52.132;5.418;2023-07-30T05:14:14;15.27;;;3.38;;
79728;SDS011;69218;52.132;5.418;2023-07-30T05:16:41;8.85;;;3.17;;
79728;SDS011;69218;52.132;5.418;2023-07-30T05:19:07;14.68;;;3.60;;
79728;SDS011;69218;52.132;5.418;2023-07-30T05:21:34;14.60;;;3.33;;
79728;SDS011;69218;52.132;5.418;2023-07-30T05:24:01;12.50;;;3.45;;
79728;SDS011;69218;52.132;5.418;2023-07-30T05:26:28;13.63;;;3.80;;
79728;SDS011;69218;52.132;5.418;2023-07-30T05:28:55;15.93;;;4.03;;
79728;SDS011;69218;52.132;5.418;2023-07-30T05:31:21;12.00;;;3.63;;
79728;SDS011;69218;52.132;5.418;2023-07-30T05:33:48;13.60;;;3.63;;
79728;SDS011;69218;52.132;5.418;2023-07-30T05:36:15;13.77;;;3.40;;
79728;SDS011;69218;52.132;5.418;2023-07-30T05:38:44;14.07;;;4.32;;
79728;SDS011;69218;52.132;5.418;2023-07-30T05:41:10;15.48;;;3.78;;
79728;SDS011;69218;52.132;5.418;2023-07-30T05:43:37;13.75;;;3.65;;
79728;SDS011;69218;52.132;5.418;2023-07-30T05:46:04;15.35;;;4.35;;
79728;SDS011;69218;52.132;5.418;2023-07-30T05:48:30;16.42;;;4.45;;
79728;SDS011;69218;52.132;5.418;2023-07-30T05:50:57;9.70;;;3.28;;
79728;SDS011;69218;52.132;5.418;2023-07-30T05:53:23;13.10;;;3.63;;
79728;SDS011;69218;52.132;5.418;2023-07-30T05:55:50;11.85;;;3.67;;
79728;SDS011;69218;52.132;5.418;2023-07-30T05:58:16;17.98;;;4.72;;
79728;SDS011;69218;52.132;5.418;2023-07-30T06:00:43;14.73;;;4.10;;
79728;SDS011;69218;52.132;5.418;2023-07-30T06:03:09;13.20;;;4.25;;
79728;SDS011;69218;52.132;5.418;2023-07-30T06:05:40;15.73;;;4.60;;
79728;SDS011;69218;52.132;5.418;2023-07-30T06:08:08;10.93;;;4.00;;
79728;SDS011;69218;52.132;5.418;2023-07-30T06:10:35;11.63;;;3.75;;
79728;SDS011;69218;52.132;5.418;2023-07-30T06:13:03;12.98;;;4.97;;
79728;SDS011;69218;52.132;5.418;2023-07-30T06:15:32;13.18;;;4.70;;
79728;SDS011;69218;52.132;5.418;2023-07-30T06:18:03;12.02;;;4.35;;
79728;SDS011;69218;52.132;5.418;2023-07-30T06:20:29;12.30;;;4.20;;
79728;SDS011;69218;52.132;5.418;2023-07-30T06:22:56;10.82;;;3.90;;
79728;SDS011;69218;52.132;5.418;2023-07-30T06:25:23;12.18;;;3.70;;
79728;SDS011;69218;52.132;5.418;2023-07-30T06:27:49;11.30;;;4.18;;
79728;SDS011;69218;52.132;5.418;2023-07-30T06:30:17;13.45;;;4.70;;
79728;SDS011;69218;52.132;5.418;2023-07-30T06:32:43;14.20;;;5.05;;
79728;SDS011;69218;52.132;5.418;2023-07-30T06:35:10;14.35;;;4.50;;
79728;SDS011;69218;52.132;5.418;2023-07-30T06:37:37;14.40;;;4.93;;
79728;SDS011;69218;52.132;5.418;2023-07-30T06:40:03;15.40;;;5.53;;
79728;SDS011;69218;52.132;5.418;2023-07-30T06:44:59;13.85;;;4.88;;
79728;SDS011;69218;52.132;5.418;2023-07-30T06:47:25;15.40;;;4.68;;
79728;SDS011;69218;52.132;5.418;2023-07-30T06:49:52;14.98;;;4.90;;
79728;SDS011;69218;52.132;5.418;2023-07-30T06:52:18;15.00;;;4.30;;
79728;SDS011;69218;52.132;5.418;2023-07-30T06:54:46;8.85;;;4.32;;
79728;SDS011;69218;52.132;5.418;2023-07-30T06:57:13;13.98;;;5.07;;
79728;SDS011;69218;52.132;5.418;2023-07-30T06:59:39;15.50;;;4.75;;
79728;SDS011;69218;52.132;5.418;2023-07-30T07:02:05;14.98;;;5.07;;
79728;SDS011;69218;52.132;5.418;2023-07-30T07:04:32;13.00;;;4.53;;
79728;SDS011;69218;52.132;5.418;2023-07-30T07:06:59;11.93;;;4.15;;
79728;SDS011;69218;52.132;5.418;2023-07-30T07:09:27;12.10;;;4.38;;
79728;SDS011;69218;52.132;5.418;2023-07-30T07:11:53;11.45;;;3.90;;
79728;SDS011;69218;52.132;5.418;2023-07-30T07:14:20;12.57;;;4.00;;
79728;SDS011;69218;52.132;5.418;2023-07-30T07:16:47;8.40;;;4.15;;
79728;SDS011;69218;52.132;5.418;2023-07-30T07:19:15;10.35;;;3.47;;
79728;SDS011;69218;52.132;5.418;2023-07-30T07:21:41;11.35;;;3.63;;
79728;SDS011;69218;52.132;5.418;2023-07-30T07:24:08;14.73;;;3.78;;
79728;SDS011;69218;52.132;5.418;2023-07-30T07:26:35;8.13;;;3.33;;
79728;SDS011;69218;52.132;5.418;2023-07-30T07:29:02;8.82;;;3.55;;
79728;SDS011;69218;52.132;5.418;2023-07-30T07:31:29;12.88;;;3.72;;
79728;SDS011;69218;52.132;5.418;2023-07-30T07:33:55;9.98;;;3.05;;
79728;SDS011;69218;52.132;5.418;2023-07-30T07:36:22;11.05;;;3.65;;
79728;SDS011;69218;52.132;5.418;2023-07-30T07:38:49;18.23;;;3.50;;
79728;SDS011;69218;52.132;5.418;2023-07-30T07:41:16;10.20;;;3.25;;
79728;SDS011;69218;52.132;5.418;2023-07-30T07:43:43;11.57;;;3.25;;
79728;SDS011;69218;52.132;5.418;2023-07-30T07:46:10;10.93;;;3.10;;
79728;SDS011;69218;52.132;5.418;2023-07-30T07:48:43;11.38;;;2.95;;
79728;SDS011;69218;52.132;5.418;2023-07-30T07:51:10;9.05;;;2.45;;
79728;SDS011;69218;52.132;5.418;2023-07-30T07:53:38;10.40;;;3.10;;
79728;SDS011;69218;52.132;5.418;2023-07-30T07:56:05;7.50;;;2.60;;
79728;SDS011;69218;52.132;5.418;2023-07-30T07:58:32;13.10;;;2.85;;
79728;SDS011;69218;52.132;5.418;2023-07-30T08:00:59;8.63;;;2.75;;
79728;SDS011;69218;52.132;5.418;2023-07-30T08:03:26;13.63;;;2.75;;
79728;SDS011;69218;52.132;5.418;2023-07-30T08:05:53;9.57;;;2.97;;
79728;SDS011;69218;52.132;5.418;2023-07-30T08:08:20;10.30;;;3.40;;
79728;SDS011;69218;52.132;5.418;2023-07-30T08:10:46;8.70;;;2.72;;
79728;SDS011;69218;52.132;5.418;2023-07-30T08:13:13;10.25;;;3.03;;
79728;SDS011;69218;52.132;5.418;2023-07-30T08:15:40;10.32;;;2.80;;
79728;SDS011;69218;52.132;5.418;2023-07-30T08:18:06;7.78;;;2.85;;
79728;SDS011;69218;52.132;5.418;2023-07-30T08:20:33;8.18;;;2.60;;
79728;SDS011;69218;52.132;5.418;2023-07-30T08:23:00;7.78;;;2.70;;
79728;SDS011;69218;52.132;5.418;2023-07-30T08:25:26;7.97;;;3.00;;
79728;SDS011;69218;52.132;5.418;2023-07-30T08:27:53;12.68;;;3.55;;
79728;SDS011;69218;52.132;5.418;2023-07-30T08:30:19;12.70;;;3.03;;
79728;SDS011;69218;52.132;5.418;2023-07-30T08:32:46;10.35;;;2.65;;
79728;SDS011;69218;52.132;5.418;2023-07-30T08:35:12;9.70;;;2.53;;
79728;SDS011;69218;52.132;5.418;2023-07-30T08:37:39;11.35;;;2.85;;
79728;SDS011;69218;52.132;5.418;2023-07-30T08:40:06;13.13;;;2.83;;
79728;SDS011;69218;52.132;5.418;2023-07-30T08:42:33;8.00;;;2.63;;
79728;SDS011;69218;52.132;5.418;2023-07-30T08:44:59;12.05;;;2.97;;
79728;SDS011;69218;52.132;5.418;2023-07-30T08:47:26;8.98;;;2.53;;
79728;SDS011;69218;52.132;5.418;2023-07-30T08:49:53;6.45;;;1.90;;
79728;SDS011;69218;52.132;5.418;2023-07-30T08:52:19;7.35;;;2.05;;
79728;SDS011;69218;52.132;5.418;2023-07-30T08:54:48;8.52;;;1.90;;
79728;SDS011;69218;52.132;5.418;2023-07-30T08:57:18;7.32;;;1.70;;
79728;SDS011;69218;52.132;5.418;2023-07-30T08:59:49;6.43;;;1.92;;
79728;SDS011;69218;52.132;5.418;2023-07-30T09:02:36;5.13;;;1.50;;
79728;SDS011;69218;52.132;5.418;2023-07-30T09:05:05;6.38;;;1.92;;
79728;SDS011;69218;52.132;5.418;2023-07-30T09:07:32;6.55;;;2.10;;
79728;SDS011;69218;52.132;5.418;2023-07-30T09:09:59;8.30;;;2.00;;
79728;SDS011;69218;52.132;5.418;2023-07-30T09:12:26;12.50;;;2.67;;
79728;SDS011;69218;52.132;5.418;2023-07-30T09:14:56;8.30;;;2.25;;
79728;SDS011;69218;52.132;5.418;2023-07-30T09:17:23;6.78;;;1.88;;
79728;SDS011;69218;52.132;5.418;2023-07-30T09:19:51;12.25;;;2.38;;
79728;SDS011;69218;52.132;5.418;2023-07-30T09:22:27;8.77;;;2.05;;
79728;SDS011;69218;52.132;5.418;2023-07-30T09:24:56;6.95;;;1.80;;
79728;SDS011;69218;52.132;5.418;2023-07-30T09:27:24;9.27;;;1.70;;
79728;SDS011;69218;52.132;5.418;2023-07-30T09:29:53;7.13;;;1.83;;
79728;SDS011;69218;52.132;5.418;2023-07-30T09:34:52;7.13;;;2.05;;
79728;SDS011;69218;52.132;5.418;2023-07-30T09:37:18;7.82;;;1.80;;
79728;SDS011;69218;52.132;5.418;2023-07-30T09:39:47;7.18;;;1.52;;
79728;SDS011;69218;52.132;5.418;2023-07-30T09:42:14;6.75;;;1.42;;
79728;SDS011;69218;52.132;5.418;2023-07-30T09:44:40;7.15;;;1.83;;
79728;SDS011;69218;52.132;5.418;2023-07-30T09:47:10;6.55;;;2.08;;
79728;SDS011;69218;52.132;5.418;2023-07-30T09:49:37;6.80;;;1.80;;
79728;SDS011;69218;52.132;5.418;2023-07-30T09:52:04;7.22;;;1.88;;
79728;SDS011;69218;52.132;5.418;2023-07-30T09:54:32;6.43;;;1.33;;
79728;SDS011;69218;52.132;5.418;2023-07-30T09:56:59;7.50;;;1.67;;
79728;SDS011;69218;52.132;5.418;2023-07-30T09:59:26;6.05;;;1.48;;
79728;SDS011;69218;52.132;5.418;2023-07-30T10:01:52;8.18;;;1.17;;
79728;SDS011;69218;52.132;5.418;2023-07-30T10:04:22;4.53;;;1.38;;
79728;SDS011;69218;52.132;5.418;2023-07-30T10:06:59;5.95;;;1.42;;
79728;SDS011;69218;52.132;5.418;2023-07-30T10:12:04;7.15;;;1.08;;
79728;SDS011;69218;52.132;5.418;2023-07-30T10:14:32;5.47;;;1.00;;
79728;SDS011;69218;52.132;5.418;2023-07-30T10:16:59;6.00;;;0.82;;
79728;SDS011;69218;52.132;5.418;2023-07-30T10:19:27;3.95;;;0.63;;
79728;SDS011;69218;52.132;5.418;2023-07-30T10:22:01;6.03;;;0.88;;
79728;SDS011;69218;52.132;5.418;2023-07-30T10:24:59;6.00;;;0.73;;
79728;SDS011;69218;52.132;5.418;2023-07-30T10:27:35;6.85;;;0.82;;
79728;SDS011;69218;52.132;5.418;2023-07-30T10:30:17;4.72;;;1.13;;
79728;SDS011;69218;52.132;5.418;2023-07-30T10:35:37;7.68;;;1.00;;
79728;SDS011;69218;52.132;5.418;2023-07-30T10:38:20;6.65;;;1.05;;
79728;SDS011;69218;52.132;5.418;2023-07-30T10:43:27;5.97;;;0.75;;
79728;SDS011;69218;52.132;5.418;2023-07-30T10:45:59;7.43;;;0.85;;
79728;SDS011;69218;52.132;5.418;2023-07-30T10:48:45;4.53;;;0.95;;
79728;SDS011;69218;52.132;5.418;2023-07-30T10:51:13;2.17;;;0.63;;
79728;SDS011;69218;52.132;5.418;2023-07-30T10:53:44;2.88;;;0.73;;
79728;SDS011;69218;52.132;5.418;2023-07-30T10:56:12;4.25;;;0.90;;
79728;SDS011;69218;52.132;5.418;2023-07-30T10:58:41;5.03;;;0.70;;
79728;SDS011;69218;52.132;5.418;2023-07-30T11:01:08;5.03;;;0.82;;
79728;SDS011;69218;52.132;5.418;2023-07-30T11:03:35;3.70;;;0.70;;
79728;SDS011;69218;52.132;5.418;2023-07-30T11:06:04;5.03;;;0.85;;
79728;SDS011;69218;52.132;5.418;2023-07-30T11:08:35;3.78;;;0.60;;
79728;SDS011;69218;52.132;5.418;2023-07-30T11:11:06;2.70;;;0.63;;
79728;SDS011;69218;52.132;5.418;2023-07-30T11:13:35;3.58;;;0.70;;
79728;SDS011;69218;52.132;5.418;2023-07-30T11:16:05;4.78;;;0.52;;
79728;SDS011;69218;52.132;5.418;2023-07-30T11:18:33;5.97;;;0.68;;
79728;SDS011;69218;52.132;5.418;2023-07-30T11:23:30;6.70;;;0.80;;
79728;SDS011;69218;52.132;5.418;2023-07-30T11:25:56;5.50;;;0.70;;
79728;SDS011;69218;52.132;5.418;2023-07-30T11:31:09;2.90;;;0.40;;
79728;SDS011;69218;52.132;5.418;2023-07-30T11:33:38;6.30;;;0.70;;
79728;SDS011;69218;52.132;5.418;2023-07-30T11:36:08;2.75;;;0.50;;
79728;SDS011;69218;52.132;5.418;2023-07-30T11:38:37;5.47;;;0.70;;
79728;SDS011;69218;52.132;5.418;2023-07-30T11:41:05;4.28;;;0.73;;
79728;SDS011;69218;52.132;5.418;2023-07-30T11:43:38;5.22;;;0.55;;
79728;SDS011;69218;52.132;5.418;2023-07-30T11:46:07;4.88;;;0.52;;
79728;SDS011;69218;52.132;5.418;2023-07-30T11:48:35;3.45;;;0.43;;
79728;SDS011;69218;52.132;5.418;2023-07-30T11:51:02;4.35;;;0.90;;
79728;SDS011;69218;52.132;5.418;2023-07-30T11:53:45;3.85;;;0.70;;
79728;SDS011;69218;52.132;5.418;2023-07-30T11:56:19;3.17;;;0.50;;
79728;SDS011;69218;52.132;5.418;2023-07-30T11:58:46;2.58;;;0.50;;
79728;SDS011;69218;52.132;5.418;2023-07-30T12:01:16;3.42;;;0.80;;
79728;SDS011;69218;52.132;5.418;2023-07-30T12:03:44;4.72;;;0.60;;
79728;SDS011;69218;52.132;5.418;2023-07-30T12:06:11;3.60;;;0.65;;
79728;SDS011;69218;52.132;5.418;2023-07-30T12:08:38;6.95;;;0.60;;
79728;SDS011;69218;52.132;5.418;2023-07-30T12:11:06;3.90;;;0.52;;
79728;SDS011;69218;52.132;5.418;2023-07-30T12:13:33;5.07;;;0.57;;
79728;SDS011;69218;52.132;5.418;2023-07-30T12:16:00;1.95;;;0.30;;
79728;SDS011;69218;52.132;5.418;2023-07-30T12:18:27;1.98;;;0.32;;
79728;SDS011;69218;52.132;5.418;2023-07-30T12:20:55;2.92;;;0.50;;
79728;SDS011;69218;52.132;5.418;2023-07-30T12:23:22;1.73;;;0.63;;
79728;SDS011;69218;52.132;5.418;2023-07-30T12:25:50;3.55;;;0.60;;
79728;SDS011;69218;52.132;5.418;2023-07-30T12:28:17;2.97;;;0.75;;
79728;SDS011;69218;52.132;5.418;2023-07-30T12:30:43;2.90;;;0.40;;
79728;SDS011;69218;52.132;5.418;2023-07-30T12:33:10;5.28;;;0.65;;
79728;SDS011;69218;52.132;5.418;2023-07-30T12:35:37;2.28;;;0.32;;
79728;SDS011;69218;52.132;5.418;2023-07-30T12:38:03;2.60;;;0.32;;
79728;SDS011;69218;52.132;5.418;2023-07-30T12:40:29;2.90;;;0.68;;
79728;SDS011;69218;52.132;5.418;2023-07-30T12:43:00;3.67;;;0.35;;
79728;SDS011;69218;52.132;5.418;2023-07-30T12:45:29;2.20;;;0.45;;
79728;SDS011;69218;52.132;5.418;2023-07-30T12:47:57;3.13;;;0.40;;
79728;SDS011;69218;52.132;5.418;2023-07-30T12:50:24;2.30;;;0.47;;
79728;SDS011;69218;52.132;5.418;2023-07-30T12:52:50;2.20;;;0.45;;
79728;SDS011;69218;52.132;5.418;2023-07-30T12:55:17;3.47;;;0.60;;
79728;SDS011;69218;52.132;5.418;2023-07-30T12:57:43;3.25;;;0.80;;
79728;SDS011;69218;52.132;5.418;2023-07-30T13:00:10;3.40;;;0.50;;
79728;SDS011;69218;52.132;5.418;2023-07-30T13:02:37;4.85;;;0.50;;
79728;SDS011;69218;52.132;5.418;2023-07-30T13:05:04;3.17;;;0.50;;
79728;SDS011;69218;52.132;5.418;2023-07-30T13:07:30;4.63;;;0.68;;
79728;SDS011;69218;52.132;5.418;2023-07-30T13:10:04;4.13;;;0.70;;
79728;SDS011;69218;52.132;5.418;2023-07-30T13:12:32;2.08;;;0.70;;
79728;SDS011;69218;52.132;5.418;2023-07-30T13:14:59;4.85;;;0.50;;
79728;SDS011;69218;52.132;5.418;2023-07-30T13:17:26;2.42;;;0.43;;
79728;SDS011;69218;52.132;5.418;2023-07-30T13:19:52;3.40;;;0.60;;
79728;SDS011;69218;52.132;5.418;2023-07-30T13:22:21;2.03;;;0.43;;
79728;SDS011;69218;52.132;5.418;2023-07-30T13:24:48;3.15;;;0.43;;
79728;SDS011;69218;52.132;5.418;2023-07-30T13:27:14;3.92;;;0.45;;
79728;SDS011;69218;52.132;5.418;2023-07-30T13:29:41;3.53;;;0.50;;
79728;SDS011;69218;52.132;5.418;2023-07-30T13:32:08;4.13;;;0.40;;
79728;SDS011;69218;52.132;5.418;2023-07-30T13:34:35;3.83;;;0.55;;
79728;SDS011;69218;52.132;5.418;2023-07-30T13:37:01;2.80;;;0.55;;
79728;SDS011;69218;52.132;5.418;2023-07-30T13:39:28;3.42;;;0.50;;
79728;SDS011;69218;52.132;5.418;2023-07-30T13:41:54;1.60;;;0.22;;
79728;SDS011;69218;52.132;5.418;2023-07-30T13:44:21;4.53;;;0.73;;
79728;SDS011;69218;52.132;5.418;2023-07-30T13:46:47;3.08;;;0.60;;
79728;SDS011;69218;52.132;5.418;2023-07-30T13:49:14;4.88;;;0.68;;
79728;SDS011;69218;52.132;5.418;2023-07-30T13:51:40;3.05;;;0.50;;
79728;SDS011;69218;52.132;5.418;2023-07-30T13:54:07;4.55;;;0.65;;
79728;SDS011;69218;52.132;5.418;2023-07-30T13:56:34;2.50;;;0.47;;
79728;SDS011;69218;52.132;5.418;2023-07-30T13:59:00;1.58;;;0.35;;
79728;SDS011;69218;52.132;5.418;2023-07-30T14:01:28;1.95;;;0.32;;
79728;SDS011;69218;52.132;5.418;2023-07-30T14:03:54;2.38;;;0.50;;
79728;SDS011;69218;52.132;5.418;2023-07-30T14:06:21;4.03;;;0.45;;
79728;SDS011;69218;52.132;5.418;2023-07-30T14:08:49;1.80;;;0.28;;
79728;SDS011;69218;52.132;5.418;2023-07-30T14:11:15;2.90;;;0.40;;
79728;SDS011;69218;52.132;5.418;2023-07-30T14:13:42;4.35;;;0.40;;
79728;SDS011;69218;52.132;5.418;2023-07-30T14:16:08;2.92;;;0.40;;
79728;SDS011;69218;52.132;5.418;2023-07-30T14:18:35;2.40;;;0.32;;
79728;SDS011;69218;52.132;5.418;2023-07-30T14:21:02;3.40;;;0.50;;
79728;SDS011;69218;52.132;5.418;2023-07-30T14:23:29;5.05;;;0.80;;
79728;SDS011;69218;52.132;5.418;2023-07-30T14:25:55;2.90;;;0.30;;
79728;SDS011;69218;52.132;5.418;2023-07-30T14:28:22;3.25;;;0.50;;
79728;SDS011;69218;52.132;5.418;2023-07-30T14:30:48;4.82;;;0.52;;
79728;SDS011;69218;52.132;5.418;2023-07-30T14:33:15;6.10;;;0.63;;
79728;SDS011;69218;52.132;5.418;2023-07-30T14:35:41;4.18;;;0.63;;
79728;SDS011;69218;52.132;5.418;2023-07-30T14:38:08;2.78;;;0.70;;
79728;SDS011;69218;52.132;5.418;2023-07-30T14:40:35;4.15;;;0.57;;
79728;SDS011;69218;52.132;5.418;2023-07-30T14:43:02;2.92;;;0.50;;
79728;SDS011;69218;52.132;5.418;2023-07-30T14:45:29;3.95;;;0.55;;
79728;SDS011;69218;52.132;5.418;2023-07-30T14:47:55;6.75;;;1.02;;
79728;SDS011;69218;52.132;5.418;2023-07-30T14:50:21;5.05;;;0.55;;
79728;SDS011;69218;52.132;5.418;2023-07-30T14:52:52;3.30;;;0.52;;
79728;SDS011;69218;52.132;5.418;2023-07-30T14:55:20;2.67;;;0.50;;
79728;SDS011;69218;52.132;5.418;2023-07-30T14:57:46;3.03;;;0.50;;
79728;SDS011;69218;52.132;5.418;2023-07-30T15:00:13;3.88;;;0.73;;
79728;SDS011;69218;52.132;5.418;2023-07-30T15:02:42;3.97;;;0.57;;